GMML

Hassan I Airport

El Aaiún, Western Sahara
TAF GMML 210500Z 2106/2212 36008KT CAVOK BECMG 2120/2123 SCT020
Issued Valid From Valid To
Apr-21 @ 05:00 UTC
(5 hours ago)
Apr-21 @ 06:00 UTC
(4 hours ago)
Apr-22 @ 12:00 UTC
(-1 days ago)
Apr-21 @ 06:00 to Apr-21 @ 20:00
TAF GMML 210500Z 2106/2212 36008KT CAVOK
Wind Visibility Clouds Conditions
360° at 8 knots 10,000+ meters
  • No significant clouds
Becoming Apr-21 @ 20:00 to Apr-22 @ 12:00
BECMG 2120/2123 SCT020
Wind Visibility Clouds Conditions
360° at 8 knots 10,000+ meters
  • Scattered at 2,000' AGL
TAF GMML 210500Z 2106/2212 36008KT CAVOK BECMG 2120/2123 SCT020
Issued Apr-21 @ 05:00 UTC
(5 hours ago)
Valid From Apr-21 @ 06:00 UTC
(4 hours ago)
Valid To Apr-22 @ 12:00 UTC
(-1 days ago)
Apr-21 @ 06:00 - Apr-21 @ 20:00
Wind Visibility
360° at 8 knots 10,000+ meters
Clouds
  • No significant clouds
Conditions
Becoming Apr-21 @ 20:00 - Apr-22 @ 12:00
Wind Visibility
360° at 8 knots 10,000+ meters
Clouds
  • Scattered at 2,000' AGL
Conditions